Time;durP1;ratioP1;P1;durP2;ratioP2;P2;SDS_P1;SDS_P2;PMS_P1;PMS_P2;Temp;Humidity;BMP_temperature;BMP_pressure;BME280_temperature;BME280_humidity;BME280_pressure;Samples;Min_cycle;Max_cycle;Signal;HPM_P1;HPM_P2
2022/06/02 00:02:43;;;;;;;17.42;12.90;;;8.50;99.90;;;;;;5011087;28;20060;-69
2022/06/02 00:05:52;;;;;;;16.75;12.38;;;8.60;99.90;;;;;;4923748;28;208993;-69
2022/06/02 00:08:24;;;;;;;19.95;12.77;;;8.60;99.90;;;;;;4998584;28;20050;-69
2022/06/02 00:10:56;;;;;;;17.75;12.63;;;8.50;99.90;;;;;;4905212;28;205720;-69
2022/06/02 00:13:51;;;;;;;21.60;13.32;;;8.50;99.90;;;;;;5001282;28;76712;-69
2022/06/02 00:16:26;;;;;;;17.73;13.02;;;8.50;99.90;;;;;;4960969;28;122230;-68
2022/06/02 00:18:59;;;;;;;19.90;13.63;;;8.50;99.90;;;;;;4963444;28;210849;-68
2022/06/02 00:21:54;;;;;;;19.20;12.68;;;8.40;99.90;;;;;;4985197;28;248806;-69
2022/06/02 00:24:43;;;;;;;20.55;14.85;;;8.40;99.90;;;;;;4939385;28;208882;-68
2022/06/02 00:27:29;;;;;;;21.15;15.45;;;8.40;99.90;;;;;;5000690;28;20372;-68
2022/06/02 00:30:07;;;;;;;22.10;14.82;;;8.50;99.90;;;;;;4926596;28;219510;-68
2022/06/02 00:32:37;;;;;;;21.02;15.13;;;8.50;99.90;;;;;;4998076;28;20076;-68
2022/06/02 00:35:25;;;;;;;22.80;15.13;;;8.50;99.90;;;;;;4950161;28;149602;-68
2022/06/02 00:38:18;;;;;;;22.65;14.82;;;8.50;99.90;;;;;;4982312;28;20045;-68
2022/06/02 00:40:46;;;;;;;17.27;13.10;;;8.50;99.90;;;;;;4927988;28;206786;-69
2022/06/02 00:43:30;;;;;;;19.02;13.05;;;8.50;99.90;;;;;;5022269;28;20368;-67
2022/06/02 00:46:08;;;;;;;17.77;13.20;;;8.50;99.90;;;;;;4972646;28;206083;-68
2022/06/02 00:48:40;;;;;;;21.63;14.17;;;8.50;99.90;;;;;;4989018;28;214510;-68
2022/06/02 00:51:10;;;;;;;18.20;13.38;;;8.40;99.90;;;;;;5020975;28;241931;-67
2022/06/02 00:53:40;;;;;;;19.50;13.50;;;8.40;99.90;;;;;;4989568;28;221663;-69
2022/06/02 00:59:02;;;;;;;20.57;13.83;;;8.30;99.90;;;;;;4973726;28;209139;-67
2022/06/02 01:01:35;;;;;;;20.00;14.85;;;8.30;99.90;;;;;;5015565;28;20304;-69
2022/06/02 01:04:10;;;;;;;20.77;13.88;;;8.20;99.90;;;;;;4972750;28;215995;-67
2022/06/02 01:06:48;;;;;;;21.20;14.00;;;8.20;99.90;;;;;;5020719;28;135725;-68
2022/06/02 01:09:25;;;;;;;21.17;14.98;;;8.20;99.90;;;;;;4965834;28;215708;-68
2022/06/02 01:12:33;;;;;;;20.52;15.20;;;8.10;99.90;;;;;;5033403;28;20062;-69
2022/06/02 01:15:17;;;;;;;21.17;13.80;;;8.10;99.90;;;;;;4923282;28;231398;-69
2022/06/02 01:18:16;;;;;;;21.42;14.73;;;8.10;99.90;;;;;;5003365;28;20514;-69
2022/06/02 01:20:57;;;;;;;22.25;15.73;;;8.00;99.90;;;;;;4898691;28;209670;-67
2022/06/02 01:23:47;;;;;;;20.55;14.88;;;8.00;99.90;;;;;;4961314;28;79648;-66
2022/06/02 01:26:48;;;;;;;21.02;14.55;;;7.90;99.90;;;;;;4923631;28;159542;-66
2022/06/02 01:29:41;;;;;;;21.67;15.23;;;7.90;99.90;;;;;;4905807;28;221485;-66
2022/06/02 01:32:16;;;;;;;21.05;15.38;;;7.90;99.90;;;;;;4967814;28;20053;-66
2022/06/02 01:35:01;;;;;;;24.02;15.93;;;7.90;99.90;;;;;;4903228;28;206372;-67
2022/06/02 01:37:42;;;;;;;20.75;15.88;;;7.80;99.90;;;;;;4967058;28;20042;-68
2022/06/02 01:40:11;;;;;;;23.20;16.40;;;7.80;99.90;;;;;;4901786;28;207103;-67
2022/06/02 01:42:54;;;;;;;23.08;16.83;;;7.80;99.90;;;;;;4959840;28;20046;-67
2022/06/02 01:45:26;;;;;;;22.75;16.35;;;7.80;99.90;;;;;;4877685;28;208933;-67
2022/06/02 01:48:16;;;;;;;23.33;16.63;;;7.80;99.90;;;;;;4961610;28;20039;-67
2022/06/02 01:51:00;;;;;;;23.50;16.77;;;7.70;99.90;;;;;;4870673;28;218868;-68
2022/06/02 01:54:04;;;;;;;23.20;16.55;;;7.70;99.90;;;;;;4925022;28;153509;-67
2022/06/02 01:56:35;;;;;;;22.83;17.33;;;7.60;99.90;;;;;;4885121;28;20050;-65
2022/06/02 01:59:16;;;;;;;36.03;17.75;;;7.60;99.90;;;;;;4917964;28;202799;-65
2022/06/02 02:01:46;;;;;;;22.58;15.93;;;7.60;99.90;;;;;;4962005;28;20047;-68
2022/06/02 02:04:20;;;;;;;35.20;16.88;;;7.60;99.90;;;;;;4894871;28;219166;-68
2022/06/02 02:06:58;;;;;;;40.75;16.13;;;7.50;99.90;;;;;;4950957;28;20054;-66
2022/06/02 02:09:47;;;;;;;42.90;15.57;;;7.50;99.90;;;;;;4909951;28;201867;-69
2022/06/02 02:12:38;;;;;;;29.77;14.70;;;7.50;99.90;;;;;;4958551;28;20058;-66
2022/06/02 02:15:17;;;;;;;32.63;15.05;;;7.50;99.90;;;;;;4906680;28;210636;-67
2022/06/02 02:17:49;;;;;;;21.58;14.80;;;7.40;99.90;;;;;;4961382;28;20054;-66
2022/06/02 02:20:22;;;;;;;22.95;15.10;;;7.40;99.90;;;;;;4885909;28;206098;-66
2022/06/02 02:22:48;;;;;;;55.58;16.63;;;7.40;99.90;;;;;;4962842;28;20393;-66
2022/06/02 02:25:41;;;;;;;34.38;15.38;;;7.40;99.90;;;;;;4888632;28;209929;-67
2022/06/02 02:28:12;;;;;;;42.08;14.85;;;7.40;99.90;;;;;;4907073;29;20513;-67
2022/06/02 02:30:43;;;;;;;27.88;15.43;;;7.30;99.90;;;;;;4851541;29;243468;-66
2022/06/02 02:33:28;;;;;;;26.45;14.75;;;7.30;99.90;;;;;;4948019;28;20057;-67
2022/06/02 02:36:09;;;;;;;36.75;15.98;;;7.30;99.90;;;;;;4900296;28;232346;-66
2022/06/02 02:38:50;;;;;;;61.50;16.83;;;7.20;99.90;;;;;;4935592;28;212825;-66
2022/06/02 02:41:43;;;;;;;23.05;15.82;;;7.20;99.90;;;;;;4942046;28;125079;-67
2022/06/02 02:44:19;;;;;;;28.77;16.02;;;7.20;99.90;;;;;;4909816;28;216249;-67
2022/06/02 02:47:03;;;;;;;34.00;17.20;;;7.10;99.90;;;;;;4970929;28;20047;-67
2022/06/02 02:49:39;;;;;;;25.05;17.73;;;7.10;99.90;;;;;;4894097;28;204664;-67
2022/06/02 02:52:10;;;;;;;24.23;16.92;;;7.10;99.90;;;;;;4967291;28;20492;-65
2022/06/02 02:54:45;;;;;;;25.23;17.45;;;7.10;99.90;;;;;;4912105;28;203975;-68
2022/06/02 02:57:45;;;;;;;21.92;16.00;;;7.10;99.90;;;;;;4958995;28;20723;-67
2022/06/02 03:00:37;;;;;;;22.17;16.15;;;7.10;99.90;;;;;;4806804;29;207895;-67
2022/06/02 03:03:17;;;;;;;22.27;16.80;;;7.10;99.90;;;;;;4880088;29;20096;-66
2022/06/02 03:06:14;;;;;;;23.30;16.27;;;7.00;99.90;;;;;;4812509;29;219690;-67
2022/06/02 03:08:46;;;;;;;23.63;16.43;;;7.00;99.90;;;;;;4868518;29;206706;-68
2022/06/02 03:11:43;;;;;;;25.05;17.13;;;7.00;99.90;;;;;;4874192;29;70345;-67
2022/06/02 03:14:30;;;;;;;25.13;18.10;;;7.00;99.90;;;;;;4856954;29;138630;-65
2022/06/02 03:17:30;;;;;;;27.15;17.90;;;7.00;99.90;;;;;;4894214;29;20052;-67
2022/06/02 03:20:18;;;;;;;25.83;18.20;;;7.00;99.90;;;;;;4831033;29;215279;-68
2022/06/02 03:22:46;;;;;;;24.88;17.35;;;7.00;99.90;;;;;;4926942;29;20059;-66
2022/06/02 03:25:21;;;;;;;25.50;17.58;;;7.00;99.90;;;;;;4869856;28;206075;-67
2022/06/02 03:28:10;;;;;;;23.70;18.33;;;7.00;99.90;;;;;;4922010;29;20070;-67
2022/06/02 03:30:51;;;;;;;24.00;17.33;;;7.00;99.90;;;;;;4860813;29;206471;-65
2022/06/02 03:33:25;;;;;;;25.02;17.17;;;7.00;99.90;;;;;;4925364;29;20056;-67
2022/06/02 03:35:54;;;;;;;27.15;18.98;;;7.00;99.90;;;;;;4877138;28;151066;-67
2022/06/02 03:38:35;;;;;;;27.27;18.35;;;7.00;99.90;;;;;;5027308;28;20049;-67
2022/06/02 03:41:22;;;;;;;26.92;18.95;;;7.00;99.90;;;;;;4949710;28;206396;-68
2022/06/02 03:43:53;;;;;;;25.80;18.88;;;7.00;99.90;;;;;;4972005;28;207039;-68
2022/06/02 03:46:35;;;;;;;25.30;17.25;;;7.00;99.90;;;;;;5009864;28;140564;-68
2022/06/02 03:49:20;;;;;;;28.83;18.83;;;7.10;99.90;;;;;;4980086;28;221059;-68
2022/06/02 03:51:55;;;;;;;23.58;16.92;;;7.10;99.90;;;;;;5028978;28;20116;-66
2022/06/02 03:54:30;;;;;;;26.73;19.38;;;7.10;99.90;;;;;;4966867;28;210202;-67
2022/06/02 03:56:56;;;;;;;28.67;18.25;;;7.10;99.90;;;;;;5018129;28;20064;-67
2022/06/02 03:59:46;;;;;;;26.45;18.88;;;7.10;99.90;;;;;;4970089;28;210873;-67
2022/06/02 04:02:15;;;;;;;27.42;19.60;;;7.20;99.90;;;;;;5032928;28;20049;-66
2022/06/02 04:05:03;;;;;;;25.58;18.60;;;7.20;99.90;;;;;;4959878;28;209586;-67
2022/06/02 04:07:51;;;;;;;27.35;18.90;;;7.30;99.90;;;;;;5029870;28;20034;-66
2022/06/02 04:10:37;;;;;;;25.27;18.83;;;7.40;99.90;;;;;;4968813;28;211455;-66
2022/06/02 04:13:37;;;;;;;24.15;18.13;;;7.40;99.90;;;;;;5030256;28;20053;-67
2022/06/02 04:16:21;;;;;;;24.23;18.08;;;7.50;99.90;;;;;;4970315;28;207569;-66
2022/06/02 04:18:59;;;;;;;24.80;18.48;;;7.60;99.90;;;;;;4976707;28;214756;-66
2022/06/02 04:21:32;;;;;;;24.58;18.88;;;7.60;99.90;;;;;;4998302;28;20050;-67
2022/06/02 04:24:28;;;;;;;26.60;18.52;;;7.70;99.90;;;;;;4976671;28;210355;-67
2022/06/02 04:27:08;;;;;;;29.17;18.13;;;7.80;99.90;;;;;;5009668;28;20041;-67
2022/06/02 04:29:59;;;;;;;24.83;18.20;;;7.70;99.90;;;;;;4953251;28;239519;-67
2022/06/02 04:32:43;;;;;;;22.05;17.33;;;7.80;99.90;;;;;;5002012;28;20363;-67
2022/06/02 04:35:34;;;;;;;24.15;17.02;;;7.90;99.90;;;;;;4966182;28;216169;-67
2022/06/02 04:38:23;;;;;;;22.63;17.83;;;7.90;99.90;;;;;;5024815;28;20049;-67
2022/06/02 04:41:21;;;;;;;24.13;17.27;;;8.00;99.90;;;;;;4952813;28;206188;-67
2022/06/02 04:44:27;;;;;;;27.63;17.60;;;8.10;99.90;;;;;;4930476;28;220466;-65
2022/06/02 04:46:59;;;;;;;24.02;16.75;;;8.10;99.90;;;;;;4975625;28;20049;-65
2022/06/02 04:49:41;;;;;;;24.25;17.45;;;8.20;99.90;;;;;;4938868;28;207437;-66
2022/06/02 04:52:30;;;;;;;24.00;17.77;;;8.30;99.90;;;;;;4989067;28;20053;-67
2022/06/02 04:55:51;;;;;;;24.30;16.63;;;8.30;99.90;;;;;;4945726;28;172024;-67
2022/06/02 04:58:34;;;;;;;20.95;16.52;;;8.40;99.90;;;;;;4947183;28;20054;-66
2022/06/02 05:01:01;;;;;;;23.77;16.42;;;8.50;99.90;;;;;;4877774;28;218409;-65
2022/06/02 05:03:49;;;;;;;22.75;17.10;;;8.60;99.90;;;;;;4928867;28;211437;-66
2022/06/02 05:06:35;;;;;;;20.63;16.40;;;8.70;99.90;;;;;;4857519;29;206985;-66
2022/06/02 05:09:20;;;;;;;25.30;16.45;;;8.80;99.90;;;;;;4845426;29;206373;-66
2022/06/02 05:12:12;;;;;;;21.10;15.05;;;8.90;99.90;;;;;;4878536;29;20072;-65
2022/06/02 05:14:56;;;;;;;21.50;15.70;;;8.90;99.90;;;;;;4851467;29;209067;-65
2022/06/02 05:17:37;;;;;;;20.38;15.23;;;9.00;99.90;;;;;;4898402;29;20052;-66
2022/06/02 05:20:39;;;;;;;21.40;14.97;;;9.10;99.90;;;;;;4840238;29;196414;-67
2022/06/02 05:23:29;;;;;;;20.33;15.68;;;9.20;99.90;;;;;;4920372;29;20047;-68
2022/06/02 05:26:32;;;;;;;19.02;14.60;;;9.30;99.90;;;;;;4826362;29;209361;-67
2022/06/02 05:29:36;;;;;;;22.38;15.13;;;9.40;99.90;;;;;;4892919;28;216163;-66
2022/06/02 05:32:26;;;;;;;21.23;14.88;;;9.50;99.90;;;;;;4950751;28;20042;-66
2022/06/02 05:35:29;;;;;;;18.63;14.02;;;9.60;99.90;;;;;;4908893;28;223154;-66
2022/06/02 05:38:32;;;;;;;17.75;13.82;;;9.70;99.90;;;;;;4982996;28;20053;-67
2022/06/02 05:41:17;;;;;;;18.90;13.88;;;9.80;99.90;;;;;;4898678;28;206466;-66
2022/06/02 05:44:06;;;;;;;17.60;12.45;;;10.00;99.90;;;;;;4956546;28;210676;-66
2022/06/02 05:46:42;;;;;;;18.35;11.35;;;10.20;99.90;;;;;;5001413;28;20049;-67
2022/06/02 05:49:16;;;;;;;15.05;10.93;;;10.30;99.90;;;;;;4964060;28;212143;-67
2022/06/02 05:51:55;;;;;;;17.60;9.90;;;10.50;99.90;;;;;;5019194;28;20518;-66
2022/06/02 05:54:39;;;;;;;14.30;9.93;;;10.70;99.90;;;;;;4970109;28;206611;-65
2022/06/02 05:57:39;;;;;;;13.35;8.70;;;10.90;99.90;;;;;;5021582;28;20064;-66
2022/06/02 06:00:36;;;;;;;13.18;7.53;;;11.30;99.90;;;;;;4962087;28;219840;-66
2022/06/02 06:03:16;;;;;;;10.20;7.07;;;11.60;99.90;;;;;;5013262;28;20694;-66
2022/06/02 06:05:45;;;;;;;13.02;7.32;;;11.70;99.90;;;;;;4933628;28;205608;-68
2022/06/02 06:08:29;;;;;;;11.48;5.90;;;11.90;99.90;;;;;;5031097;28;20056;-68
2022/06/02 06:11:08;;;;;;;12.20;5.70;;;12.10;99.90;;;;;;4964362;28;208197;-68
2022/06/02 06:13:43;;;;;;;10.80;5.45;;;12.30;99.90;;;;;;4978694;28;209018;-67
2022/06/02 06:16:21;;;;;;;10.15;5.07;;;12.40;99.90;;;;;;4998642;28;195879;-68
2022/06/02 06:19:13;;;;;;;10.48;4.95;;;12.60;99.90;;;;;;4972771;28;223802;-68
2022/06/02 06:22:01;;;;;;;9.05;4.43;;;12.80;99.90;;;;;;5012825;28;20360;-68
2022/06/02 06:24:29;;;;;;;11.52;3.92;;;12.90;99.90;;;;;;4969473;28;224808;-67
2022/06/02 06:27:26;;;;;;;8.82;3.38;;;13.00;99.90;;;;;;5020860;28;20045;-67
2022/06/02 06:30:30;;;;;;;9.68;3.72;;;13.20;99.90;;;;;;4967015;28;215440;-68
2022/06/02 06:33:17;;;;;;;8.90;3.38;;;13.30;99.90;;;;;;4994645;28;20057;-68
2022/06/02 06:35:52;;;;;;;8.15;3.17;;;13.40;99.90;;;;;;4920264;28;134458;-67
2022/06/02 06:38:40;;;;;;;7.65;2.85;;;13.60;99.90;;;;;;4986324;28;20050;-67
2022/06/02 06:41:40;;;;;;;8.25;3.00;;;13.80;99.90;;;;;;4916447;28;205817;-67
2022/06/02 06:44:18;;;;;;;8.70;2.70;;;13.90;99.90;;;;;;4933925;28;208497;-68
2022/06/02 06:46:50;;;;;;;8.40;2.50;;;13.90;99.90;;;;;;4972382;28;20038;-66
2022/06/02 06:49:24;;;;;;;8.35;2.53;;;14.00;99.90;;;;;;4908180;28;212040;-66
2022/06/02 06:52:14;;;;;;;8.10;2.40;;;14.10;99.90;;;;;;4989752;28;20058;-66
2022/06/02 06:55:03;;;;;;;7.85;2.20;;;14.30;99.90;;;;;;4931928;28;206399;-67
2022/06/02 06:57:52;;;;;;;7.05;2.30;;;14.40;99.90;;;;;;4991356;28;20363;-67
2022/06/02 07:00:41;;;;;;;7.43;2.20;;;14.40;99.90;;;;;;4932473;28;242828;-68
2022/06/02 07:03:19;;;;;;;9.23;2.50;;;14.50;99.90;;;;;;4989778;28;20118;-69
2022/06/02 07:05:51;;;;;;;6.65;2.20;;;14.60;99.90;;;;;;4917803;28;208281;-68
2022/06/02 07:08:33;;;;;;;7.93;2.10;;;14.70;99.90;;;;;;4993040;28;20065;-69
2022/06/02 07:14:33;;;;;;;6.40;1.73;;;15.20;99.90;;;;;;4964532;28;212773;-68
2022/06/02 07:17:05;;;;;;;6.40;1.67;;;15.10;99.90;;;;;;5022251;28;20053;-68
2022/06/02 07:19:47;;;;;;;7.35;1.98;;;15.00;99.90;;;;;;4952171;28;214846;-67
2022/06/02 07:22:49;;;;;;;7.40;2.00;;;14.90;99.90;;;;;;5025476;28;20065;-66
2022/06/02 07:25:24;;;;;;;9.27;2.05;;;14.90;99.90;;;;;;4953508;28;212467;-69
2022/06/02 07:28:26;;;;;;;6.95;1.70;;;15.10;99.90;;;;;;5027700;28;20056;-67
2022/06/02 07:31:04;;;;;;;5.72;1.60;;;15.40;99.90;;;;;;4920462;28;206526;-67
2022/06/02 07:33:47;;;;;;;7.78;1.90;;;15.20;99.90;;;;;;4912822;28;207267;-68
2022/06/02 07:36:50;;;;;;;6.82;1.80;;;15.00;99.90;;;;;;4944236;28;156961;-67
2022/06/02 07:39:33;;;;;;;5.43;1.48;;;14.90;99.90;;;;;;4919170;28;221583;-67
2022/06/02 07:42:15;;;;;;;7.75;1.80;;;15.10;99.90;;;;;;4942577;28;20692;-68
2022/06/02 07:45:32;;;;;;;7.30;1.67;;;15.50;99.90;;;;;;4903989;28;206367;-69
2022/06/02 07:48:04;;;;;;;5.88;1.52;;;15.70;99.90;;;;;;4864215;29;20060;-67
2022/06/02 07:50:33;;;;;;;8.65;1.80;;;15.70;99.90;;;;;;4827517;29;215530;-68
2022/06/02 07:53:37;;;;;;;7.22;1.67;;;15.70;99.90;;;;;;4868062;29;20276;-69
2022/06/02 07:56:27;;;;;;;6.00;1.50;;;15.60;99.90;;;;;;4827752;29;206197;-68
2022/06/02 07:59:16;;;;;;;7.20;1.80;;;15.30;99.90;;;;;;4837371;29;209731;-68
2022/06/02 08:01:54;;;;;;;6.45;1.75;;;15.60;99.90;;;;;;4798625;29;20053;-68
2022/06/02 08:04:44;;;;;;;5.93;1.40;;;15.90;99.90;;;;;;4753689;29;212746;-67
2022/06/02 08:07:39;;;;;;;8.18;1.58;;;16.50;99.90;;;;;;4829279;29;20499;-67
2022/06/02 08:10:25;;;;;;;5.95;1.60;;;16.50;99.90;;;;;;4822709;29;206565;-68
2022/06/02 08:13:03;;;;;;;6.00;1.50;;;16.30;99.90;;;;;;4884793;29;20079;-68
2022/06/02 08:15:55;;;;;;;7.05;1.45;;;16.20;99.90;;;;;;4831548;29;153692;-68
2022/06/02 08:18:45;;;;;;;4.80;1.40;;;16.40;99.90;;;;;;4868427;29;20068;-68
2022/06/02 08:21:20;;;;;;;5.50;1.45;;;16.70;99.70;;;;;;4815267;29;215022;-68
2022/06/02 08:24:22;;;;;;;6.40;1.55;;;16.90;99.90;;;;;;4863903;28;206357;-68
2022/06/02 08:27:12;;;;;;;5.13;1.40;;;17.40;99.90;;;;;;4848137;29;20056;-67
2022/06/02 08:29:57;;;;;;;5.97;1.40;;;17.10;99.90;;;;;;4820152;29;206129;-66
2022/06/02 08:32:54;;;;;;;7.80;1.58;;;16.80;99.90;;;;;;4864973;29;20057;-67
2022/06/02 08:36:00;;;;;;;8.05;1.48;;;16.60;99.90;;;;;;4814328;29;209183;-67
2022/06/02 08:38:47;;;;;;;5.50;1.50;;;16.80;99.90;;;;;;4789152;29;179805;-66
2022/06/02 08:41:49;;;;;;;7.25;1.60;;;17.30;99.90;;;;;;4826473;29;206363;-68
2022/06/02 08:44:24;;;;;;;6.45;1.48;;;18.00;99.90;;;;;;4811486;29;207764;-68
2022/06/02 08:47:17;;;;;;;6.13;1.60;;;18.00;99.40;;;;;;4855362;29;20630;-68
2022/06/02 08:50:00;;;;;;;7.75;1.60;;;17.60;98.00;;;;;;4800933;29;206667;-67
2022/06/02 08:52:51;;;;;;;6.85;1.40;;;17.00;97.50;;;;;;4849924;29;20149;-67
2022/06/02 08:55:38;;;;;;;7.10;1.50;;;16.50;97.80;;;;;;4820553;29;157663;-67
2022/06/02 08:58:23;;;;;;;4.97;1.30;;;16.20;99.90;;;;;;4848393;29;20515;-68
2022/06/02 09:01:07;;;;;;;6.60;1.48;;;16.90;99.90;;;;;;4820104;29;207310;-67
2022/06/02 09:03:55;;;;;;;5.70;1.45;;;17.70;99.60;;;;;;4849669;28;116690;-67
2022/06/02 09:06:51;;;;;;;8.65;1.67;;;18.30;97.30;;;;;;4899935;28;134395;-66
2022/06/02 09:09:23;;;;;;;4.30;1.15;;;18.20;95.90;;;;;;4899744;28;207234;-68
2022/06/02 09:12:04;;;;;;;5.75;1.30;;;18.20;96.20;;;;;;4945500;28;20519;-66
2022/06/02 09:14:52;;;;;;;7.00;1.60;;;18.30;98.30;;;;;;4892114;28;206359;-66
2022/06/02 09:17:39;;;;;;;7.47;1.50;;;18.60;99.00;;;;;;5022704;28;20076;-67
2022/06/02 09:20:14;;;;;;;5.50;1.45;;;19.50;99.40;;;;;;4941783;28;215567;-67
2022/06/02 09:22:49;;;;;;;4.90;1.20;;;20.30;96.80;;;;;;5024735;28;20510;-68
2022/06/02 09:25:41;;;;;;;6.03;1.50;;;20.30;91.20;;;;;;4972052;28;232690;-67
2022/06/02 09:28:39;;;;;;;6.35;1.42;;;20.20;90.20;;;;;;5027210;28;20502;-67
2022/06/02 09:31:22;;;;;;;7.05;1.40;;;20.30;93.90;;;;;;4951526;28;211130;-67
2022/06/02 09:34:00;;;;;;;6.07;1.30;;;20.50;92.10;;;;;;4983191;28;212643;-67
2022/06/02 09:36:48;;;;;;;6.82;1.40;;;20.80;93.00;;;;;;4990896;28;20414;-68
2022/06/02 09:39:26;;;;;;;5.63;1.30;;;21.20;90.90;;;;;;4953006;28;216829;-66
2022/06/02 09:42:19;;;;;;;5.45;1.30;;;20.90;88.10;;;;;;5004728;28;20053;-67
2022/06/02 09:44:57;;;;;;;5.53;1.40;;;20.60;87.00;;;;;;4954916;28;214567;-66
2022/06/02 09:48:08;;;;;;;7.97;1.60;;;19.80;82.80;;;;;;5021006;28;20449;-67
2022/06/02 09:50:38;;;;;;;6.45;1.60;;;19.00;86.90;;;;;;4879630;28;207244;-67
2022/06/02 09:53:22;;;;;;;6.18;1.55;;;18.70;89.20;;;;;;4958983;28;20579;-66
2022/06/02 09:56:23;;;;;;;5.75;1.25;;;18.70;90.60;;;;;;4904715;28;210082;-67
2022/06/02 09:59:13;;;;;;;6.40;1.38;;;18.40;86.30;;;;;;4923562;28;207632;-67
2022/06/02 10:02:07;;;;;;;7.15;1.50;;;18.00;89.00;;;;;;4930927;28;20165;-66
2022/06/02 10:05:04;;;;;;;6.03;1.27;;;18.60;91.70;;;;;;4881627;28;209196;-67
2022/06/02 10:07:56;;;;;;;8.48;1.52;;;19.50;88.90;;;;;;4939348;28;20062;-67
2022/06/02 10:10:46;;;;;;;6.55;1.67;;;20.40;91.90;;;;;;4905276;28;209322;-66
2022/06/02 10:13:57;;;;;;;5.50;1.40;;;20.90;89.00;;;;;;4962281;28;20058;-67
2022/06/02 10:16:55;;;;;;;5.57;1.55;;;20.50;80.40;;;;;;4914791;28;240165;-67
2022/06/02 10:19:40;;;;;;;9.77;1.67;;;20.10;85.80;;;;;;4887690;28;207143;-68
2022/06/02 10:22:49;;;;;;;6.20;1.70;;;19.90;88.60;;;;;;4937704;28;20051;-68
2022/06/02 10:25:27;;;;;;;6.45;1.73;;;19.70;87.50;;;;;;4960558;28;210121;-67
2022/06/02 10:28:02;;;;;;;8.02;1.55;;;19.60;89.00;;;;;;5027550;28;20041;-66
2022/06/02 10:30:40;;;;;;;6.78;1.30;;;19.70;89.70;;;;;;4964262;28;212156;-67
2022/06/02 10:33:25;;;;;;;5.35;1.52;;;19.70;85.30;;;;;;5025659;28;20046;-68
2022/06/02 10:36:05;;;;;;;6.50;1.27;;;19.50;83.10;;;;;;4936886;28;210760;-67
2022/06/02 10:38:53;;;;;;;6.45;1.40;;;19.20;84.20;;;;;;4970759;28;216193;-68
2022/06/02 10:41:41;;;;;;;5.90;1.40;;;19.30;84.90;;;;;;5023387;28;95105;-67
2022/06/02 10:44:19;;;;;;;6.03;1.42;;;19.80;88.70;;;;;;4964102;28;212819;-67
2022/06/02 10:47:24;;;;;;;5.55;1.30;;;20.20;90.40;;;;;;5022129;28;20057;-68
2022/06/02 10:50:25;;;;;;;5.03;1.48;;;20.50;87.30;;;;;;4970438;28;215868;-68
2022/06/02 10:53:15;;;;;;;7.38;1.65;;;20.40;81.50;;;;;;4956040;28;20126;-68
2022/06/02 10:56:18;;;;;;;7.00;1.63;;;19.80;80.40;;;;;;4894548;28;216492;-66
2022/06/02 10:59:14;;;;;;;6.20;1.58;;;19.40;81.90;;;;;;4916783;28;207849;-67
2022/06/02 11:02:09;;;;;;;7.20;1.40;;;19.50;83.10;;;;;;4953626;28;20042;-67
2022/06/02 11:04:57;;;;;;;6.15;1.35;;;20.20;87.00;;;;;;4870209;28;207805;-67
2022/06/02 11:07:31;;;;;;;6.53;1.50;;;21.20;76.90;;;;;;4928793;28;20704;-67
2022/06/02 11:10:26;;;;;;;8.00;1.50;;;21.50;78.80;;;;;;4894290;28;175719;-68
2022/06/02 11:13:19;;;;;;;6.63;1.48;;;22.10;76.70;;;;;;4943212;28;20043;-67
2022/06/02 11:16:06;;;;;;;5.78;1.42;;;22.40;74.90;;;;;;4879240;28;244370;-67
2022/06/02 11:18:32;;;;;;;6.82;1.63;;;22.20;68.10;;;;;;4879781;28;211061;-68
2022/06/02 11:21:27;;;;;;;6.72;1.30;;;21.90;71.10;;;;;;4914783;28;239136;-67
2022/06/02 11:24:24;;;;;;;4.70;1.20;;;22.30;71.90;;;;;;4901013;28;204071;-68
2022/06/02 11:27:25;;;;;;;6.20;1.40;;;21.90;65.20;;;;;;4909822;29;20047;-68
2022/06/02 11:30:18;;;;;;;6.55;1.50;;;21.00;68.40;;;;;;4896344;28;271247;-68
2022/06/02 11:33:13;;;;;;;6.30;1.45;;;20.90;71.30;;;;;;4957471;28;20071;-67
2022/06/02 11:35:42;;;;;;;5.65;1.40;;;21.10;70.90;;;;;;4895273;28;135660;-67
2022/06/02 11:38:30;;;;;;;7.70;1.70;;;22.00;72.00;;;;;;4964040;28;20063;-68
2022/06/02 11:41:27;;;;;;;5.80;1.60;;;22.40;68.60;;;;;;4914650;28;206694;-68
2022/06/02 11:43:59;;;;;;;6.45;1.58;;;21.50;65.60;;;;;;4975652;28;233318;-67
2022/06/02 11:46:28;;;;;;;6.97;1.50;;;20.80;69.10;;;;;;5015209;28;71929;-67
2022/06/02 11:49:39;;;;;;;6.53;1.50;;;20.50;69.70;;;;;;4975678;28;216712;-67
2022/06/02 11:52:31;;;;;;;5.90;1.30;;;20.10;69.60;;;;;;5009639;28;20550;-67
2022/06/02 11:55:15;;;;;;;6.68;1.30;;;19.80;72.40;;;;;;4963926;28;272355;-67
2022/06/02 11:58:06;;;;;;;4.60;1.13;;;19.80;73.40;;;;;;5022834;28;20065;-66
2022/06/02 12:00:54;;;;;;;6.10;1.33;;;20.20;73.90;;;;;;4976894;28;230549;-66
2022/06/02 12:03:32;;;;;;;6.32;1.40;;;21.40;79.90;;;;;;5019538;28;20050;-68
2022/06/02 12:06:07;;;;;;;5.95;1.40;;;22.60;74.90;;;;;;4948287;28;150281;-67
2022/06/02 12:09:06;;;;;;;7.13;1.27;;;23.70;70.70;;;;;;4977244;28;211578;-67
2022/06/02 12:12:03;;;;;;;6.43;1.35;;;23.40;63.80;;;;;;5003915;28;20045;-67
2022/06/02 12:15:01;;;;;;;7.32;1.60;;;22.60;64.20;;;;;;4956969;28;213337;-67
2022/06/02 12:17:55;;;;;;;7.10;1.48;;;21.90;63.30;;;;;;5021277;28;20049;-66
2022/06/02 12:20:23;;;;;;;4.80;1.30;;;21.90;67.10;;;;;;4963722;28;211111;-66
2022/06/02 12:23:00;;;;;;;5.03;1.20;;;22.80;66.70;;;;;;5022057;28;20061;-67
2022/06/02 12:26:01;;;;;;;6.35;1.33;;;23.30;63.80;;;;;;4967843;28;214056;-68
2022/06/02 12:28:52;;;;;;;5.95;1.38;;;23.60;58.40;;;;;;4990391;28;213634;-67
2022/06/02 12:31:27;;;;;;;5.20;1.30;;;24.20;64.40;;;;;;4990184;28;208234;-67
2022/06/02 12:34:27;;;;;;;6.45;1.40;;;24.70;57.40;;;;;;4976701;28;210063;-67
2022/06/02 12:37:27;;;;;;;6.40;1.60;;;24.00;58.70;;;;;;5001987;28;20056;-67
2022/06/02 12:40:07;;;;;;;6.10;1.30;;;23.80;59.70;;;;;;4953497;28;215781;-68
2022/06/02 12:43:18;;;;;;;7.55;1.48;;;23.70;59.90;;;;;;5019300;28;20050;-67
2022/06/02 12:45:57;;;;;;;5.45;1.30;;;23.70;59.90;;;;;;4904735;28;213578;-69
2022/06/02 12:48:26;;;;;;;5.63;1.25;;;23.70;60.40;;;;;;4967039;28;212357;-67
2022/06/02 12:51:03;;;;;;;5.65;1.30;;;23.90;59.70;;;;;;4945165;28;138280;-66
2022/06/02 12:54:10;;;;;;;4.85;1.20;;;24.00;58.90;;;;;;4934359;28;207564;-67
2022/06/02 12:57:03;;;;;;;5.72;1.60;;;24.00;58.80;;;;;;4895380;29;20513;-67
2022/06/02 12:59:34;;;;;;;5.45;1.38;;;24.00;55.30;;;;;;4843437;29;215499;-67
2022/06/02 13:02:34;;;;;;;6.55;1.40;;;24.10;59.70;;;;;;4902675;29;20079;-67
2022/06/02 13:05:09;;;;;;;7.23;1.37;;;24.70;57.40;;;;;;4827384;29;278062;-67
2022/06/02 13:07:53;;;;;;;7.38;1.38;;;24.80;55.40;;;;;;4905617;29;20327;-66
2022/06/02 13:10:51;;;;;;;7.03;1.30;;;25.00;55.00;;;;;;4828367;29;215855;-67
2022/06/02 13:13:41;;;;;;;7.10;1.25;;;25.40;55.60;;;;;;4903310;29;20067;-66
2022/06/02 13:16:28;;;;;;;7.55;1.40;;;25.80;54.20;;;;;;4839136;29;206516;-66
2022/06/02 13:19:01;;;;;;;6.65;1.30;;;25.30;53.60;;;;;;4862339;29;209428;-67
2022/06/02 13:21:56;;;;;;;5.63;1.20;;;25.40;55.40;;;;;;4905717;28;20050;-65
2022/06/02 13:24:51;;;;;;;6.07;1.40;;;25.30;54.20;;;;;;4913812;28;161310;-67
2022/06/02 13:27:35;;;;;;;6.53;1.42;;;25.40;53.00;;;;;;4958900;28;20551;-67
2022/06/02 13:30:13;;;;;;;5.68;1.35;;;25.50;49.80;;;;;;4895589;28;241916;-68
2022/06/02 13:32:48;;;;;;;6.15;1.23;;;25.00;51.40;;;;;;4967726;28;20051;-65
2022/06/02 13:35:52;;;;;;;5.45;1.30;;;25.50;54.40;;;;;;4953612;28;212723;-68
2022/06/02 13:38:44;;;;;;;6.18;1.40;;;26.60;53.00;;;;;;5022057;28;20427;-66
2022/06/02 13:41:35;;;;;;;5.90;1.40;;;27.20;52.60;;;;;;4954039;28;206276;-67
2022/06/02 13:44:23;;;;;;;5.07;1.25;;;27.20;51.70;;;;;;4956037;28;234341;-67
2022/06/02 13:47:24;;;;;;;4.55;1.20;;;27.50;51.30;;;;;;5016549;28;20068;-66
2022/06/02 13:50:08;;;;;;;5.30;1.20;;;27.80;50.90;;;;;;4958450;28;215087;-67
2022/06/02 13:53:12;;;;;;;4.53;1.10;;;28.20;48.00;;;;;;5030586;28;20057;-67
2022/06/02 13:59:01;;;;;;;4.80;1.17;;;27.10;50.10;;;;;;4933012;28;214191;-66
2022/06/02 14:01:46;;;;;;;5.43;1.30;;;26.50;51.80;;;;;;4957925;28;20042;-68
2022/06/02 14:04:41;;;;;;;4.05;1.00;;;26.80;52.30;;;;;;4915096;28;135930;-67
2022/06/02 14:07:30;;;;;;;4.60;1.10;;;26.40;49.20;;;;;;4946124;28;20162;-67
2022/06/02 14:10:18;;;;;;;5.45;1.10;;;26.10;47.60;;;;;;4873459;28;212212;-67
2022/06/02 14:13:26;;;;;;;6.32;1.20;;;25.40;51.40;;;;;;4938793;28;20062;-67
2022/06/02 14:16:04;;;;;;;6.13;1.50;;;24.90;52.10;;;;;;4865050;29;144517;-66
2022/06/02 14:18:33;;;;;;;7.18;1.60;;;24.30;52.00;;;;;;4897967;28;212910;-67
2022/06/02 14:21:11;;;;;;;5.30;1.40;;;24.00;53.10;;;;;;4926701;28;156926;-66